Alpinopolis, Brazil
Current Conditions -  °F | °C
As of 11:00 PM on Tuesday 21 Oct 2014 (Local Time) from SBRP Reporting Station
Clear Clear  
Wind Chill: 72°   Ceiling: Unl
Heat Index: 72°   Visibility: 6mi
Dew Point: 55°   Wind: 10mph
Humidity: 57%   Direction: 160°SSE
Pressure: 30.03"   Gusts: NA
Location:  20.86°S, 46.4°W
Report Text: SBRP 220100Z 16009KT CAVOK 22/13 Q1017
Loading
Personal Weather Stations






























Interactive Weather Map
Tropical Storm Tracking
New forecast layout! Learn more

10-Day Weather Forecast

Advertisements
Track Severe Weather on mobile